createdAt,value
2022-09-22T00:00:23.470Z,4.40
2022-09-22T00:02:49.686Z,4.20
2022-09-22T00:05:16.070Z,4.40
2022-09-22T00:07:42.315Z,3.87
2022-09-22T00:10:08.595Z,4.00
2022-09-22T00:12:36.947Z,3.93
2022-09-22T00:15:04.386Z,3.77
2022-09-22T00:17:31.489Z,3.90
2022-09-22T00:19:57.696Z,4.00
2022-09-22T00:22:24.568Z,4.10
2022-09-22T00:24:50.794Z,3.70
2022-09-22T00:27:18.175Z,3.40
2022-09-22T00:29:44.765Z,3.80
2022-09-22T00:32:10.976Z,4.13
2022-09-22T00:34:37.204Z,3.70
2022-09-22T00:37:03.446Z,3.73
2022-09-22T00:39:30.814Z,3.70
2022-09-22T00:41:57.117Z,3.70
2022-09-22T00:44:26.400Z,4.00
2022-09-22T00:47:18.994Z,3.73
2022-09-22T00:49:48.255Z,3.80
2022-09-22T00:52:19.066Z,3.70
2022-09-22T00:54:45.653Z,3.20
2022-09-22T00:57:13.395Z,3.80
2022-09-22T00:59:40.008Z,3.70
2022-09-22T01:02:06.550Z,3.87
2022-09-22T01:04:33.165Z,3.93
2022-09-22T01:07:00.168Z,3.57
2022-09-22T01:09:26.995Z,3.73
2022-09-22T01:11:53.195Z,3.60
2022-09-22T01:14:25.687Z,3.60
2022-09-22T01:17:04.729Z,3.53
2022-09-22T01:19:33.735Z,3.40
2022-09-22T01:22:29.168Z,3.93
2022-09-22T01:25:23.642Z,3.50
2022-09-22T01:27:49.894Z,3.53
2022-09-22T01:30:17.204Z,3.77
2022-09-22T01:32:52.230Z,4.07
2022-09-22T01:35:24.004Z,3.83
2022-09-22T01:38:19.742Z,3.67
2022-09-22T01:40:48.828Z,4.30
2022-09-22T01:43:15.142Z,3.60
2022-09-22T01:45:43.112Z,4.00
2022-09-22T01:48:30.158Z,3.90
2022-09-22T01:51:04.373Z,3.93
2022-09-22T01:53:33.608Z,3.83
2022-09-22T01:56:01.118Z,3.63
2022-09-22T01:58:27.354Z,4.03
2022-09-22T02:01:14.918Z,3.70
2022-09-22T02:03:43.984Z,3.50
2022-09-22T02:06:28.855Z,3.57
2022-09-22T02:08:57.222Z,3.57
2022-09-22T02:11:23.780Z,4.10
2022-09-22T02:13:50.023Z,3.60
2022-09-22T02:16:18.933Z,3.47
2022-09-22T02:18:45.198Z,3.37
2022-09-22T02:21:11.990Z,3.33
2022-09-22T02:23:38.438Z,3.40
2022-09-22T02:26:05.844Z,3.37
2022-09-22T02:28:33.486Z,3.53
2022-09-22T02:31:18.985Z,3.57
2022-09-22T02:33:45.637Z,3.40
2022-09-22T02:36:25.022Z,3.30
2022-09-22T02:38:54.871Z,3.60
2022-09-22T02:41:26.177Z,3.50
2022-09-22T02:44:00.327Z,3.70
2022-09-22T02:46:39.998Z,3.43
2022-09-22T02:49:08.444Z,3.43
2022-09-22T02:51:34.836Z,3.40
2022-09-22T02:54:01.963Z,3.53
2022-09-22T02:56:28.195Z,3.50
2022-09-22T02:58:58.344Z,3.77
2022-09-22T03:01:25.397Z,3.97
2022-09-22T03:03:51.655Z,3.70
2022-09-22T03:06:18.081Z,3.60
2022-09-22T03:08:44.316Z,3.57
2022-09-22T03:11:10.537Z,3.43
2022-09-22T03:13:36.804Z,3.50
2022-09-22T03:16:03.193Z,3.57
2022-09-22T03:18:29.500Z,3.60
2022-09-22T03:20:55.719Z,3.50
2022-09-22T03:23:21.981Z,3.20
2022-09-22T03:25:48.209Z,3.40
2022-09-22T03:28:14.426Z,3.47
2022-09-22T03:30:40.795Z,3.67
2022-09-22T03:33:07.136Z,3.30
2022-09-22T03:35:33.425Z,3.23
2022-09-22T03:37:59.646Z,3.23
2022-09-22T03:40:25.993Z,3.30
2022-09-22T03:42:52.496Z,3.40
2022-09-22T03:45:19.813Z,3.33
2022-09-22T03:47:46.573Z,3.83
2022-09-22T03:50:13.983Z,3.30
2022-09-22T03:52:42.991Z,3.53
2022-09-22T03:55:09.542Z,3.60
2022-09-22T03:57:35.787Z,3.30
2022-09-22T04:00:07.541Z,3.37
2022-09-22T04:02:33.797Z,3.70
2022-09-22T04:05:00.045Z,3.20
2022-09-22T04:07:26.283Z,3.50
2022-09-22T04:09:52.546Z,3.80
2022-09-22T04:12:18.856Z,3.50
2022-09-22T04:14:45.078Z,3.67
2022-09-22T04:17:11.329Z,3.70
2022-09-22T04:19:37.552Z,3.83
2022-09-22T04:22:03.977Z,3.63
2022-09-22T04:24:30.243Z,4.00
2022-09-22T04:27:18.652Z,3.40
2022-09-22T04:29:42.744Z,3.67
2022-09-22T04:32:08.957Z,3.70
2022-09-22T04:34:35.270Z,3.73
2022-09-22T04:37:01.739Z,3.80
2022-09-22T04:39:31.019Z,3.73
2022-09-22T04:41:57.287Z,3.80
2022-09-22T04:44:23.568Z,3.43
2022-09-22T04:46:50.413Z,3.70
2022-09-22T04:49:17.160Z,3.40
2022-09-22T04:51:43.387Z,3.80
2022-09-22T04:54:09.702Z,4.73
2022-09-22T04:56:35.915Z,4.20
2022-09-22T04:59:02.339Z,4.57
2022-09-22T05:01:29.327Z,4.03
2022-09-22T05:03:55.645Z,4.57
2022-09-22T05:06:21.881Z,3.93
2022-09-22T05:08:48.116Z,4.10
2022-09-22T05:11:14.489Z,4.20
2022-09-22T05:13:41.128Z,4.70
2022-09-22T05:16:08.358Z,3.70
2022-09-22T05:18:35.020Z,4.27
2022-09-22T05:21:01.743Z,3.80
2022-09-22T05:23:28.026Z,3.97
2022-09-22T05:25:54.779Z,4.23
2022-09-22T05:28:24.043Z,3.90
2022-09-22T05:30:51.433Z,4.07
2022-09-22T05:33:17.704Z,4.53
2022-09-22T05:35:43.985Z,4.13
2022-09-22T05:38:10.253Z,3.93
2022-09-22T05:40:36.629Z,4.07
2022-09-22T05:43:02.887Z,4.10
2022-09-22T05:45:29.177Z,4.50
2022-09-22T05:47:55.427Z,4.63
2022-09-22T05:50:23.629Z,4.57
2022-09-22T05:52:50.045Z,5.07
2022-09-22T05:55:16.370Z,4.37
2022-09-22T05:57:43.731Z,5.37
2022-09-22T06:00:10.619Z,5.17
2022-09-22T06:02:36.908Z,4.60
2022-09-22T06:05:03.308Z,5.10
2022-09-22T06:07:30.214Z,7.60
2022-09-22T06:09:56.483Z,6.53
2022-09-22T06:12:22.830Z,6.23
2022-09-22T06:14:49.074Z,5.97
2022-09-22T06:17:15.495Z,5.57
2022-09-22T06:19:43.149Z,5.43
2022-09-22T06:22:11.162Z,5.07
2022-09-22T06:24:37.457Z,4.83
2022-09-22T06:27:03.717Z,4.37
2022-09-22T06:29:30.008Z,4.20
2022-09-22T06:31:56.359Z,3.63
2022-09-22T06:34:23.878Z,3.30
2022-09-22T06:36:50.153Z,3.50
2022-09-22T06:39:16.387Z,3.20
2022-09-22T06:41:44.617Z,3.40
2022-09-22T06:44:12.612Z,3.80
2022-09-22T06:46:39.274Z,3.00
2022-09-22T06:49:05.542Z,3.13
2022-09-22T06:51:35.250Z,3.10
2022-09-22T06:54:04.295Z,3.30
2022-09-22T06:56:37.088Z,3.30
2022-09-22T06:59:18.341Z,3.47
2022-09-22T07:01:45.227Z,3.13
2022-09-22T07:04:12.145Z,3.33
2022-09-22T07:06:39.605Z,3.10
2022-09-22T07:09:06.489Z,3.20
2022-09-22T07:11:36.282Z,2.97
2022-09-22T07:14:06.033Z,3.00
2022-09-22T07:16:32.307Z,3.33
2022-09-22T07:18:58.755Z,3.30
2022-09-22T07:21:29.929Z,3.10
2022-09-22T07:23:57.410Z,3.10
2022-09-22T07:26:28.763Z,2.90
2022-09-22T07:28:56.091Z,2.80
2022-09-22T07:31:28.810Z,2.40
2022-09-22T07:33:55.827Z,2.60
2022-09-22T07:36:23.179Z,2.27
2022-09-22T07:38:52.186Z,2.40
2022-09-22T07:41:19.462Z,2.30
2022-09-22T07:43:46.190Z,2.10
2022-09-22T07:46:13.199Z,1.70
2022-09-22T07:48:48.590Z,1.60
2022-09-22T07:51:20.593Z,1.57
2022-09-22T07:53:48.028Z,1.77
2022-09-22T07:56:15.975Z,1.67
2022-09-22T07:58:46.819Z,1.57
2022-09-22T08:01:13.231Z,1.90
2022-09-22T08:03:39.820Z,1.40
2022-09-22T08:06:12.705Z,1.77
2022-09-22T08:08:39.760Z,1.90
2022-09-22T08:11:07.382Z,1.77
2022-09-22T08:13:34.736Z,1.87
2022-09-22T08:16:03.754Z,2.17
2022-09-22T08:18:30.025Z,1.87
2022-09-22T08:20:56.296Z,2.00
2022-09-22T08:23:23.288Z,2.30
2022-09-22T08:25:50.712Z,2.10
2022-09-22T08:28:16.940Z,1.43
2022-09-22T08:30:46.653Z,1.47
2022-09-22T08:33:13.353Z,1.50
2022-09-22T08:35:50.922Z,1.47
2022-09-22T08:38:17.190Z,1.30
2022-09-22T08:40:49.507Z,1.17
2022-09-22T08:43:15.916Z,1.03
2022-09-22T08:45:44.219Z,1.00
2022-09-22T08:48:35.218Z,1.00
2022-09-22T08:51:23.534Z,0.90
2022-09-22T08:53:51.574Z,1.10
2022-09-22T08:56:20.637Z,1.10
2022-09-22T08:58:50.371Z,1.03
2022-09-22T09:01:22.804Z,1.00
2022-09-22T09:03:54.846Z,0.80
2022-09-22T09:06:28.681Z,0.97
2022-09-22T09:09:05.265Z,0.70
2022-09-22T09:11:46.558Z,0.90
2022-09-22T09:14:30.179Z,0.60
2022-09-22T09:17:03.720Z,0.93
2022-09-22T09:19:37.703Z,0.67
2022-09-22T09:22:15.364Z,0.57
2022-09-22T09:27:38.584Z,0.77
2022-09-22T09:30:10.003Z,0.60
2022-09-22T09:32:43.273Z,0.90
2022-09-22T09:35:12.965Z,0.63
2022-09-22T09:37:39.480Z,0.70
2022-09-22T09:40:07.690Z,0.80
2022-09-22T09:42:35.274Z,0.70
2022-09-22T09:45:02.817Z,0.60
2022-09-22T09:48:01.230Z,0.83
2022-09-22T09:50:32.072Z,0.73
2022-09-22T09:52:59.667Z,0.70
2022-09-22T09:55:27.038Z,0.77
2022-09-22T09:58:04.494Z,0.80
2022-09-22T10:00:31.851Z,0.60
2022-09-22T10:03:04.530Z,0.80
2022-09-22T10:05:32.421Z,0.60
2022-09-22T10:08:01.170Z,0.70
2022-09-22T10:10:32.126Z,0.70
2022-09-22T10:13:04.163Z,0.63
2022-09-22T10:15:31.696Z,0.67
2022-09-22T10:17:57.967Z,0.60
2022-09-22T10:20:24.374Z,0.83
2022-09-22T10:22:50.645Z,0.87
2022-09-22T10:25:24.327Z,0.70
2022-09-22T10:28:01.354Z,0.63
2022-09-22T10:30:28.000Z,0.60
2022-09-22T10:33:13.952Z,0.60
2022-09-22T10:35:44.703Z,0.77
2022-09-22T10:38:14.314Z,0.60
2022-09-22T10:40:41.880Z,0.40
2022-09-22T10:43:37.331Z,0.70
2022-09-22T10:46:06.506Z,0.80
2022-09-22T10:48:44.893Z,0.80
2022-09-22T10:51:30.223Z,0.80
2022-09-22T10:54:15.315Z,1.00
2022-09-22T10:56:44.029Z,0.70
2022-09-22T10:59:22.256Z,0.70
2022-09-22T11:01:59.375Z,0.60
2022-09-22T11:04:44.700Z,0.90
2022-09-22T11:07:48.660Z,0.70
2022-09-22T11:10:42.023Z,1.03
2022-09-22T11:13:16.408Z,0.60
2022-09-22T11:15:42.769Z,0.77
2022-09-22T11:18:29.333Z,0.80
2022-09-22T11:21:04.083Z,0.80
2022-09-22T11:23:49.300Z,0.73
2022-09-22T11:26:15.570Z,0.80
2022-09-22T11:29:00.833Z,0.70
2022-09-22T11:31:36.887Z,0.70
2022-09-22T11:34:07.342Z,0.80
2022-09-22T11:36:38.895Z,0.83
2022-09-22T11:39:25.884Z,0.70
2022-09-22T11:42:04.360Z,0.80
2022-09-22T11:44:38.907Z,0.70
2022-09-22T11:47:12.148Z,0.60
2022-09-22T11:49:53.579Z,0.80
2022-09-22T11:52:19.780Z,0.80
2022-09-22T11:55:04.772Z,0.77
2022-09-22T11:57:34.009Z,0.90
2022-09-22T12:00:20.673Z,0.80
2022-09-22T12:02:49.225Z,0.90
2022-09-22T12:05:19.284Z,0.80
2022-09-22T12:08:00.048Z,0.73
2022-09-22T12:10:32.106Z,0.70
2022-09-22T12:12:58.396Z,0.70
2022-09-22T12:15:31.202Z,0.70
2022-09-22T12:18:19.820Z,0.90
2022-09-22T12:21:09.657Z,1.10
2022-09-22T12:23:37.587Z,0.90
2022-09-22T12:26:05.567Z,0.80
2022-09-22T12:28:36.828Z,0.80
2022-09-22T12:31:06.047Z,0.93
2022-09-22T12:33:34.052Z,0.90
2022-09-22T12:36:00.947Z,0.90
2022-09-22T12:38:29.976Z,1.00
2022-09-22T12:40:58.312Z,0.73
2022-09-22T12:43:25.020Z,0.70
2022-09-22T12:45:51.882Z,0.70
2022-09-22T12:48:22.198Z,0.87
2022-09-22T12:50:49.233Z,0.60
2022-09-22T12:53:21.695Z,0.70
2022-09-22T12:55:48.584Z,0.67
2022-09-22T12:58:20.797Z,0.80
2022-09-22T13:00:49.061Z,0.80
2022-09-22T13:03:24.262Z,0.90
2022-09-22T13:05:52.861Z,0.60
2022-09-22T13:08:24.141Z,1.13
2022-09-22T13:10:52.586Z,0.90
2022-09-22T13:13:33.771Z,0.70
2022-09-22T13:16:01.639Z,0.60
2022-09-22T13:18:35.366Z,0.67
2022-09-22T13:21:03.198Z,0.80
2022-09-22T13:23:29.520Z,0.80
2022-09-22T13:26:04.499Z,0.70
2022-09-22T13:28:30.719Z,0.70
2022-09-22T13:31:04.752Z,0.80
2022-09-22T13:33:33.396Z,0.80
2022-09-22T13:36:02.589Z,0.60
2022-09-22T13:38:29.659Z,0.50
2022-09-22T13:40:55.898Z,0.70
2022-09-22T13:43:28.030Z,0.60
2022-09-22T13:45:57.052Z,0.63
2022-09-22T13:48:23.652Z,0.57
2022-09-22T13:50:52.262Z,0.70
2022-09-22T13:53:20.375Z,0.70
2022-09-22T13:55:50.770Z,0.73
2022-09-22T13:58:24.066Z,1.20
2022-09-22T14:01:14.406Z,0.63
2022-09-22T14:03:42.980Z,0.80
2022-09-22T14:06:10.685Z,0.70
2022-09-22T14:08:40.082Z,0.87
2022-09-22T14:11:08.068Z,0.90
2022-09-22T14:13:55.907Z,0.90
2022-09-22T14:16:28.128Z,0.80
2022-09-22T14:18:59.467Z,1.30
2022-09-22T14:21:25.850Z,1.10
2022-09-22T14:23:52.508Z,0.90
2022-09-22T14:26:33.214Z,1.00
2022-09-22T14:29:07.472Z,0.80
2022-09-22T14:31:33.717Z,1.00
2022-09-22T14:34:02.008Z,0.97
2022-09-22T14:36:28.465Z,0.70
2022-09-22T14:39:08.194Z,0.90
2022-09-22T14:41:36.914Z,0.70
2022-09-22T14:44:21.893Z,0.83
2022-09-22T14:46:48.136Z,1.20
2022-09-22T14:49:33.430Z,0.90
2022-09-22T14:52:00.527Z,3.83
2022-09-22T14:54:29.858Z,1.50
2022-09-22T14:56:58.155Z,1.23
2022-09-22T14:59:42.918Z,1.30
2022-09-22T15:02:31.385Z,1.23
2022-09-22T15:04:57.686Z,0.80
2022-09-22T15:07:25.903Z,0.70
2022-09-22T15:09:57.564Z,1.00
2022-09-22T15:12:47.351Z,0.97
2022-09-22T15:15:20.022Z,1.00
2022-09-22T15:18:06.390Z,1.00
2022-09-22T15:20:44.111Z,0.80
2022-09-22T15:23:14.146Z,0.90
2022-09-22T15:25:40.469Z,0.90
2022-09-22T15:28:11.163Z,0.97
2022-09-22T15:30:37.415Z,0.90
2022-09-22T15:33:03.790Z,0.80
2022-09-22T15:35:32.123Z,1.00
2022-09-22T15:37:58.414Z,0.97
2022-09-22T15:40:24.684Z,1.00
2022-09-22T15:43:11.800Z,0.90
2022-09-22T15:45:38.644Z,0.90
2022-09-22T15:48:04.933Z,1.00
2022-09-22T15:50:31.242Z,0.90
2022-09-22T15:52:57.574Z,0.97
2022-09-22T15:55:24.223Z,1.00
2022-09-22T15:57:52.690Z,0.80
2022-09-22T16:00:20.378Z,0.90
2022-09-22T16:02:47.160Z,1.00
2022-09-22T16:05:14.466Z,1.40
2022-09-22T16:07:45.170Z,0.93
2022-09-22T16:10:13.862Z,1.20
2022-09-22T16:12:41.607Z,1.03
2022-09-22T16:15:14.410Z,1.60
2022-09-22T16:17:42.178Z,1.20
2022-09-22T16:20:09.383Z,1.30
2022-09-22T16:22:35.844Z,1.10
2022-09-22T16:25:03.238Z,1.00
2022-09-22T16:27:29.918Z,1.27
2022-09-22T16:29:58.896Z,1.10
2022-09-22T16:32:26.200Z,1.00
2022-09-22T16:34:53.420Z,1.03
2022-09-22T16:37:20.411Z,1.27
2022-09-22T16:39:48.231Z,1.17
2022-09-22T16:42:15.318Z,1.10
2022-09-22T16:44:42.312Z,1.47
2022-09-22T16:47:08.552Z,1.50
2022-09-22T16:49:35.240Z,1.50
2022-09-22T16:52:01.576Z,1.40
2022-09-22T16:54:27.789Z,1.50
2022-09-22T16:56:54.150Z,1.80
2022-09-22T16:59:24.168Z,1.80
2022-09-22T17:01:51.621Z,1.60
2022-09-22T17:04:19.316Z,1.57
2022-09-22T17:06:46.211Z,1.70
2022-09-22T17:09:12.912Z,1.63
2022-09-22T17:11:40.592Z,1.57
2022-09-22T17:14:12.080Z,1.80
2022-09-22T17:16:39.930Z,1.67
2022-09-22T17:19:07.856Z,2.10
2022-09-22T17:21:35.827Z,1.77
2022-09-22T17:24:02.548Z,1.70
2022-09-22T17:26:30.124Z,1.50
2022-09-22T17:28:56.471Z,1.50
2022-09-22T17:31:23.574Z,1.40
2022-09-22T17:33:52.346Z,1.50
2022-09-22T17:36:20.333Z,2.10
2022-09-22T17:38:48.183Z,2.00
2022-09-22T17:41:14.629Z,2.30
2022-09-22T17:43:42.728Z,2.40
2022-09-22T17:46:12.041Z,2.70
2022-09-22T17:48:57.110Z,2.80
2022-09-22T17:51:44.884Z,3.20
2022-09-22T17:54:36.218Z,2.80
2022-09-22T17:57:02.460Z,3.00
2022-09-22T17:59:31.498Z,2.80
2022-09-22T18:01:58.510Z,2.73
2022-09-22T18:04:25.028Z,2.87
2022-09-22T18:06:51.315Z,3.20
2022-09-22T18:09:18.764Z,3.47
2022-09-22T18:11:45.996Z,3.07
2022-09-22T18:14:12.368Z,3.70
2022-09-22T18:16:38.936Z,4.20
2022-09-22T18:19:05.759Z,4.67
2022-09-22T18:21:35.361Z,4.00
2022-09-22T18:24:01.825Z,4.10
2022-09-22T18:26:38.179Z,4.20
2022-09-22T18:29:09.939Z,3.80
2022-09-22T18:31:39.233Z,3.50
2022-09-22T18:34:08.643Z,3.80
2022-09-22T18:36:38.557Z,3.57
2022-09-22T18:39:05.366Z,3.87
2022-09-22T18:41:35.266Z,3.73
2022-09-22T18:44:04.553Z,3.43
2022-09-22T18:46:36.652Z,4.07
2022-09-22T18:49:08.653Z,4.30
2022-09-22T18:51:39.198Z,3.93
2022-09-22T18:54:10.555Z,3.90
2022-09-22T18:56:40.194Z,3.80
2022-09-22T18:59:09.254Z,4.07
2022-09-22T19:01:35.599Z,4.00
2022-09-22T19:04:02.476Z,4.27
2022-09-22T19:06:29.369Z,4.73
2022-09-22T19:08:55.863Z,5.27
2022-09-22T19:11:22.110Z,5.33
2022-09-22T19:13:48.340Z,5.10
2022-09-22T19:16:14.814Z,5.50
2022-09-22T19:18:41.787Z,5.70
2022-09-22T19:21:14.074Z,5.20
2022-09-22T19:23:41.666Z,5.60
2022-09-22T19:26:07.922Z,6.77
2022-09-22T19:28:34.303Z,5.27
2022-09-22T19:31:00.595Z,5.50
2022-09-22T19:33:26.858Z,5.20
2022-09-22T19:35:53.110Z,5.30
2022-09-22T19:38:19.347Z,5.83
2022-09-22T19:40:46.389Z,5.67
2022-09-22T19:43:12.682Z,5.70
2022-09-22T19:45:39.102Z,6.27
2022-09-22T19:48:05.355Z,7.37
2022-09-22T19:50:31.627Z,7.83
2022-09-22T19:52:57.844Z,7.00
2022-09-22T19:55:24.334Z,6.83
2022-09-22T19:57:52.289Z,7.40
2022-09-22T20:00:25.666Z,7.53
2022-09-22T20:02:58.089Z,8.03
2022-09-22T20:05:26.200Z,7.50
2022-09-22T20:07:52.455Z,8.23
2022-09-22T20:10:21.329Z,8.93
2022-09-22T20:12:47.592Z,9.00
2022-09-22T20:15:15.124Z,8.60
2022-09-22T20:17:46.192Z,8.30
2022-09-22T20:20:13.395Z,8.17
2022-09-22T20:22:40.900Z,8.40
2022-09-22T20:25:13.641Z,9.03
2022-09-22T20:27:39.992Z,8.60
2022-09-22T20:30:08.346Z,8.23
2022-09-22T20:32:34.645Z,8.67
2022-09-22T20:35:01.616Z,8.40
2022-09-22T20:37:27.896Z,8.73
2022-09-22T20:39:54.162Z,7.63
2022-09-22T20:42:20.446Z,7.87
2022-09-22T20:44:47.104Z,8.43
2022-09-22T20:47:14.472Z,8.13
2022-09-22T20:49:46.814Z,8.03
2022-09-22T20:52:15.966Z,8.77
2022-09-22T20:54:42.517Z,8.83
2022-09-22T20:57:08.935Z,8.07
2022-09-22T20:59:36.060Z,8.60
2022-09-22T21:02:02.442Z,8.70
2022-09-22T21:04:29.527Z,8.20
2022-09-22T21:06:56.207Z,8.53
2022-09-22T21:09:41.200Z,8.70
2022-09-22T21:12:08.417Z,8.53
2022-09-22T21:14:34.961Z,8.87
2022-09-22T21:17:06.167Z,8.67
2022-09-22T21:19:33.385Z,8.90
2022-09-22T21:21:59.737Z,9.03
2022-09-22T21:24:27.813Z,8.23
2022-09-22T21:26:54.184Z,8.13
2022-09-22T21:29:21.169Z,8.77
2022-09-22T21:31:49.695Z,8.30
2022-09-22T21:34:18.951Z,7.83
2022-09-22T21:36:46.408Z,8.03
2022-09-22T21:39:12.663Z,8.43
2022-09-22T21:41:38.891Z,8.70
2022-09-22T21:44:05.855Z,8.17
2022-09-22T21:46:32.615Z,8.40
2022-09-22T21:49:01.770Z,9.30
2022-09-22T21:51:29.288Z,8.80
2022-09-22T21:53:56.126Z,8.33
2022-09-22T21:56:23.627Z,8.87
2022-09-22T21:58:50.754Z,7.97
2022-09-22T22:01:24.336Z,8.10
2022-09-22T22:03:51.710Z,7.97
2022-09-22T22:06:22.006Z,7.77
2022-09-22T22:08:53.175Z,7.60
2022-09-22T22:11:23.907Z,8.17
2022-09-22T22:13:54.833Z,7.53
2022-09-22T22:16:25.340Z,7.67
2022-09-22T22:18:51.726Z,7.73
2022-09-22T22:21:19.199Z,7.90
2022-09-22T22:23:49.541Z,7.57
2022-09-22T22:26:17.184Z,7.57
2022-09-22T22:28:44.224Z,7.80
2022-09-22T22:31:11.624Z,7.87
2022-09-22T22:33:38.824Z,7.30
2022-09-22T22:36:07.391Z,8.07
2022-09-22T22:38:34.568Z,8.20
2022-09-22T22:41:05.096Z,7.40
2022-09-22T22:43:31.692Z,7.70
2022-09-22T22:45:58.205Z,7.40
2022-09-22T22:48:26.130Z,7.60
2022-09-22T22:50:53.041Z,7.40
2022-09-22T22:53:19.960Z,7.80
2022-09-22T22:55:59.772Z,7.27
2022-09-22T22:58:28.234Z,8.00
2022-09-22T23:01:09.857Z,7.83
2022-09-22T23:03:36.860Z,8.03
2022-09-22T23:06:03.114Z,7.63
2022-09-22T23:08:29.485Z,7.80
2022-09-22T23:11:00.944Z,7.57
2022-09-22T23:13:29.123Z,6.90
2022-09-22T23:16:06.055Z,7.57
2022-09-22T23:18:34.119Z,8.03
2022-09-22T23:21:00.836Z,7.13
2022-09-22T23:23:27.380Z,7.73
2022-09-22T23:25:53.582Z,7.37
2022-09-22T23:28:20.343Z,7.60
2022-09-22T23:30:46.648Z,7.13
2022-09-22T23:33:13.188Z,7.03
2022-09-22T23:35:40.152Z,7.40
2022-09-22T23:38:08.869Z,7.33
2022-09-22T23:40:35.527Z,7.53
2022-09-22T23:43:01.806Z,7.57
2022-09-22T23:45:29.479Z,7.80
2022-09-22T23:47:55.818Z,8.20
2022-09-22T23:50:23.334Z,7.57
2022-09-22T23:52:50.870Z,7.83
2022-09-22T23:55:17.144Z,7.93
2022-09-22T23:57:43.659Z,8.83
